Time;durP1;ratioP1;P1;durP2;ratioP2;P2;SDS_P1;SDS_P2;PMS_P1;PMS_P2;Temp;Humidity;BMP_temperature;BMP_pressure;BME280_temperature;BME280_humidity;BME280_pressure;Samples;Min_cycle;Max_cycle;Signal;HPM_P1;HPM_P2
2021/05/19 00:01:50;;;;;;;3.43;3.13;;;;;;;10.86;100.00;99755.47;20896766;28;20277;-63
2021/05/19 00:11:51;;;;;;;4.07;3.70;;;;;;;10.94;100.00;99749.53;20896180;28;20314;-62
2021/05/19 00:21:52;;;;;;;5.80;3.97;;;;;;;10.93;100.00;99762.03;20895405;28;20224;-62
2021/05/19 00:31:52;;;;;;;4.50;3.97;;;;;;;11.01;100.00;99759.63;20895413;28;20620;-65
2021/05/19 00:41:53;;;;;;;4.40;3.87;;;;;;;11.01;100.00;99778.31;20894558;28;20314;-61
2021/05/19 00:51:53;;;;;;;5.03;4.23;;;;;;;10.99;100.00;99761.56;20893407;28;20321;-61
2021/05/19 01:01:53;;;;;;;4.20;3.80;;;;;;;11.04;100.00;99766.56;20913254;28;20379;-61
2021/05/19 01:11:54;;;;;;;4.50;4.10;;;;;;;11.02;100.00;99772.03;20893539;28;20238;-66
2021/05/19 01:21:56;;;;;;;4.17;3.73;;;;;;;11.12;100.00;99775.69;20873925;28;20604;-63
2021/05/19 01:31:57;;;;;;;5.37;3.80;;;;;;;10.78;100.00;99772.03;20931597;28;20713;-61
2021/05/19 01:41:57;;;;;;;4.80;4.40;;;;;;;10.50;100.00;99776.84;20907857;28;20314;-58
2021/05/19 01:52:01;;;;;;;4.53;3.77;;;;;;;10.48;100.00;99784.09;20907348;28;20279;-62
2021/05/19 02:02:01;;;;;;;4.00;3.60;;;;;;;10.50;100.00;99790.19;20913403;28;20238;-55
2021/05/19 02:12:02;;;;;;;4.53;3.53;;;;;;;10.36;100.00;99792.03;20919970;28;20660;-55
2021/05/19 02:22:03;;;;;;;4.00;3.70;;;;;;;10.36;100.00;99797.34;20905244;28;20233;-54
2021/05/19 02:32:03;;;;;;;4.37;3.97;;;;;;;10.38;100.00;99799.94;20904409;28;20279;-54
2021/05/19 02:42:04;;;;;;;4.60;4.20;;;;;;;10.35;100.00;99801.00;20903471;28;20230;-59
2021/05/19 02:52:05;;;;;;;5.57;4.60;;;;;;;10.31;100.00;99804.81;20903230;28;20230;-57
2021/05/19 03:02:06;;;;;;;5.97;4.83;;;;;;;10.33;100.00;99808.25;20901937;28;20256;-54
2021/05/19 03:12:07;;;;;;;6.47;5.23;;;;;;;10.31;100.00;99807.50;20901368;28;20231;-54
2021/05/19 03:22:07;;;;;;;6.97;5.60;;;;;;;10.31;100.00;99810.16;20911295;28;20238;-66
2021/05/19 03:32:08;;;;;;;7.90;7.10;;;;;;;10.26;100.00;99808.78;20899643;28;20305;-66
2021/05/19 03:42:08;;;;;;;10.27;7.57;;;;;;;10.29;100.00;99822.75;20906475;28;20563;-75
2021/05/19 03:52:09;;;;;;;6.68;6.07;;;;;;;10.36;100.00;99832.03;20980050;28;20280;-66
2021/05/19 04:02:09;;;;;;;9.03;6.97;;;;;;;10.44;100.00;99836.81;20979668;28;20728;-63
2021/05/19 04:12:10;;;;;;;8.70;6.23;;;;;;;10.63;100.00;99839.00;20978920;28;20222;-56
2021/05/19 04:22:10;;;;;;;6.00;5.17;;;;;;;10.84;100.00;99848.13;21011006;28;20305;-57
2021/05/19 04:32:11;;;;;;;5.90;5.40;;;;;;;10.90;100.00;99853.00;20978275;28;20222;-59
2021/05/19 04:42:11;;;;;;;6.17;5.20;;;;;;;10.88;100.00;99857.59;20967630;28;20592;-73
2021/05/19 04:52:12;;;;;;;5.17;4.67;;;;;;;11.00;100.00;99862.06;20894398;28;20226;-57
2021/05/19 05:02:12;;;;;;;6.77;6.10;;;;;;;10.95;100.00;99864.22;20894157;28;20680;-60
2021/05/19 05:12:14;;;;;;;8.05;7.22;;;;;;;11.08;100.00;99886.41;20909013;28;20230;-60
2021/05/19 05:22:15;;;;;;;7.53;6.83;;;;;;;11.19;100.00;99894.47;20909610;28;20640;-58
2021/05/19 05:32:15;;;;;;;8.87;8.03;;;;;;;11.34;100.00;99899.66;20899909;27;20218;-76
2021/05/19 05:42:16;;;;;;;9.97;8.93;;;;;;;11.57;100.00;99908.63;20991946;27;20480;-61
2021/05/19 05:52:16;;;;;;;9.60;8.60;;;;;;;11.69;100.00;99913.91;21072292;27;20314;-73
2021/05/19 06:02:18;;;;;;;12.53;10.70;;;;;;;11.98;100.00;99924.22;21072456;27;20706;-67
2021/05/19 06:12:19;;;;;;;12.40;11.20;;;;;;;12.15;100.00;99923.78;21072321;27;20312;-62
2021/05/19 06:22:20;;;;;;;12.50;10.93;;;;;;;12.46;100.00;99928.44;21071173;27;20233;-71
2021/05/19 06:32:20;;;;;;;12.83;11.37;;;;;;;12.72;100.00;99936.25;21070847;27;20414;-63
2021/05/19 06:42:21;;;;;;;11.27;10.17;;;;;;;13.02;100.00;99938.31;21069806;27;20446;-59
2021/05/19 06:52:22;;;;;;;13.03;11.83;;;;;;;13.26;100.00;99947.09;21069240;27;20228;-59
2021/05/19 07:02:23;;;;;;;12.73;11.50;;;;;;;13.49;100.00;99945.22;21089636;27;20384;-61
2021/05/19 07:12:23;;;;;;;14.17;12.77;;;;;;;13.72;100.00;99938.78;21063692;27;20300;-59
2021/05/19 07:22:26;;;;;;;12.30;11.20;;;;;;;14.02;100.00;99941.56;21096656;27;20223;-59
2021/05/19 07:32:27;;;;;;;14.43;13.03;;;;;;;14.16;100.00;99944.91;21065410;27;20285;-61
2021/05/19 07:42:27;;;;;;;14.43;12.93;;;;;;;14.41;100.00;99949.94;21064379;27;20636;-63
2021/05/19 07:52:28;;;;;;;12.93;11.80;;;;;;;14.64;100.00;99948.78;21087068;27;20500;-60
2021/05/19 08:02:28;;;;;;;14.03;12.50;;;;;;;14.39;100.00;99957.22;21062513;27;20992;-60
2021/05/19 08:12:29;;;;;;;14.33;11.97;;;;;;;14.41;100.00;99960.66;21063148;27;20222;-59
2021/05/19 08:22:29;;;;;;;13.03;11.83;;;;;;;14.37;100.00;99967.22;21062135;27;20229;-59
2021/05/19 08:32:29;;;;;;;14.33;13.03;;;;;;;13.95;100.00;99977.09;21061197;27;20220;-59
2021/05/19 08:42:32;;;;;;;14.47;12.33;;;;;;;14.77;100.00;99975.44;21040214;27;20984;-58
2021/05/19 08:52:38;;;;;;;11.90;10.80;;;;;;;15.35;98.42;99971.13;20996837;27;20337;-60
2021/05/19 09:02:38;;;;;;;10.53;9.50;;;;;;;15.74;94.88;99977.47;21000679;27;20522;-59
2021/05/19 09:12:39;;;;;;;9.67;8.80;;;;;;;16.19;90.35;99982.28;21001078;27;20233;-59
2021/05/19 09:22:44;;;;;;;9.43;8.50;;;;;;;16.62;87.06;99983.66;21004032;27;20588;-60
2021/05/19 09:32:45;;;;;;;7.00;6.30;;;;;;;17.05;84.42;99991.22;21001285;27;20245;-61
2021/05/19 09:42:49;;;;;;;6.40;5.80;;;;;;;17.01;82.14;99987.13;21003310;27;20601;-60
2021/05/19 09:53:04;;;;;;;6.03;5.10;;;;;;;17.26;79.04;99989.16;21009498;27;20304;-61
2021/05/19 10:03:08;;;;;;;5.77;4.83;;;;;;;17.38;78.25;99987.97;21018085;27;20717;-60
2021/05/19 10:13:08;;;;;;;5.03;3.93;;;;;;;17.64;73.45;99994.34;21016460;27;20235;-60
2021/05/19 10:23:11;;;;;;;4.03;3.63;;;;;;;17.62;68.88;100001.72;21014549;27;20309;-59
2021/05/19 10:33:30;;;;;;;3.80;3.50;;;;;;;17.33;66.37;99998.34;21045566;27;20300;-60
2021/05/19 10:43:52;;;;;;;6.80;3.77;;;;;;;17.62;65.53;100004.44;21013803;27;20244;-60
2021/05/19 11:04:28;;;;;;;3.23;2.93;;;;;;;18.35;63.94;99999.75;21010909;27;20238;-60
2021/05/19 11:14:36;;;;;;;3.07;2.83;;;;;;;18.29;64.18;99994.16;21009805;27;20218;-59
2021/05/19 11:24:58;;;;;;;2.57;2.47;;;;;;;18.81;62.83;99989.69;21010108;27;20233;-60
2021/05/19 11:35:19;;;;;;;2.47;2.30;;;;;;;19.13;59.74;99971.94;21009136;27;20316;-59
2021/05/19 11:45:24;;;;;;;2.37;2.23;;;;;;;18.80;55.81;99990.69;21005558;27;20660;-59
2021/05/19 11:55:38;;;;;;;2.23;2.10;;;;;;;18.93;56.25;99992.97;21006706;27;20231;-59
2021/05/19 12:05:50;;;;;;;2.33;2.13;;;;;;;18.49;56.95;99990.25;21005305;27;20224;-69
2021/05/19 12:15:50;;;;;;;2.57;2.37;;;;;;;17.92;59.11;99984.34;21004375;27;20221;-70
2021/05/19 12:25:56;;;;;;;3.90;2.40;;;;;;;17.53;57.27;99978.34;21006230;27;20838;-65
2021/05/19 12:35:57;;;;;;;2.33;2.20;;;;;;;17.86;60.15;99976.88;21003684;27;20216;-59
2021/05/19 12:46:11;;;;;;;2.30;2.20;;;;;;;17.87;58.12;99978.56;21006307;27;20734;-58
2021/05/19 12:56:17;;;;;;;2.83;2.63;;;;;;;17.59;58.18;99975.03;21004975;27;20225;-62
2021/05/19 13:06:18;;;;;;;4.90;2.13;;;;;;;18.21;59.00;99967.06;21004026;27;20226;-59
2021/05/19 13:16:25;;;;;;;2.50;2.30;;;;;;;18.64;55.95;99977.06;21025856;27;20307;-60
2021/05/19 13:26:30;;;;;;;2.10;2.00;;;;;;;18.51;54.86;99976.59;21045511;27;20210;-58
2021/05/19 13:46:33;;;;;;;2.40;2.10;;;;;;;18.65;55.12;99970.63;21070466;27;20586;-58
2021/05/19 13:56:34;;;;;;;1.70;1.60;;;;;;;18.49;56.60;99970.47;21073792;27;20214;-60
2021/05/19 14:06:35;;;;;;;1.83;1.70;;;;;;;18.07;58.94;99971.16;21073267;27;20584;-67
2021/05/19 15:07:43;;;;;;;2.00;1.80;;;;;;;17.12;59.94;100003.13;21068353;27;20301;-62
2021/05/19 15:17:44;;;;;;;2.10;1.93;;;;;;;17.31;58.38;100002.16;21067707;27;20640;-56
2021/05/19 15:27:44;;;;;;;2.33;2.13;;;;;;;16.95;61.93;100011.97;21066318;27;20241;-60
2021/05/19 15:37:45;;;;;;;2.30;2.10;;;;;;;16.61;63.42;100019.69;21065833;27;20210;-69
2021/05/19 15:47:46;;;;;;;3.03;2.40;;;;;;;17.20;61.89;100022.94;21064099;27;20229;-57
2021/05/19 15:57:46;;;;;;;2.60;2.40;;;;;;;16.44;65.17;100061.66;21064400;27;20361;-57
2021/05/19 16:07:47;;;;;;;3.33;1.80;;;;;;;15.07;70.42;100065.97;21087427;27;20214;-57
2021/05/19 16:17:47;;;;;;;2.00;1.90;;;;;;;14.56;76.73;100072.13;21116760;27;20205;-65
2021/05/19 16:27:48;;;;;;;1.97;1.87;;;;;;;14.18;79.54;100063.72;21154399;27;20701;-57
2021/05/19 16:37:49;;;;;;;2.20;2.00;;;;;;;14.05;80.52;100085.34;21152365;27;20218;-58
2021/05/19 16:47:49;;;;;;;1.90;1.80;;;;;;;13.90;82.61;100092.81;21127975;27;20220;-57
2021/05/19 16:57:50;;;;;;;1.90;1.80;;;;;;;13.72;83.86;100088.97;21115239;27;20231;-58
2021/05/19 17:07:51;;;;;;;2.83;2.30;;;;;;;13.72;84.28;100104.19;21059699;27;20594;-57
2021/05/19 17:17:52;;;;;;;3.20;2.80;;;;;;;13.59;85.71;100107.00;21062630;27;20225;-58
2021/05/19 17:27:53;;;;;;;2.40;2.20;;;;;;;13.68;85.95;100112.50;21053998;27;20468;-57
2021/05/19 17:37:54;;;;;;;2.10;1.90;;;;;;;13.60;82.90;100106.03;21060303;27;20223;-55
2021/05/19 17:47:55;;;;;;;1.57;1.47;;;;;;;13.50;82.71;100110.44;21041651;27;20614;-56
2021/05/19 17:57:55;;;;;;;1.80;1.70;;;;;;;13.38;84.64;100111.41;21058203;27;20226;-58
2021/05/19 18:07:56;;;;;;;1.50;1.40;;;;;;;13.37;85.37;100107.03;21047798;28;20653;-57
2021/05/19 18:17:57;;;;;;;1.90;1.80;;;;;;;13.40;87.10;100112.16;21052043;28;20290;-56
2021/05/19 18:27:58;;;;;;;1.67;1.57;;;;;;;13.43;85.81;100120.78;21048875;28;20946;-58
2021/05/19 18:38:00;;;;;;;1.80;1.70;;;;;;;13.18;87.81;100118.31;21047000;28;20222;-57
2021/05/19 18:48:00;;;;;;;2.27;2.10;;;;;;;12.98;89.92;100135.91;21062106;28;20222;-58
2021/05/19 18:58:01;;;;;;;1.60;1.50;;;;;;;12.84;92.10;100146.84;21038296;28;20218;-62
2021/05/19 19:08:02;;;;;;;2.30;2.10;;;;;;;12.71;91.85;100156.75;21054329;28;20279;-59
2021/05/19 19:18:02;;;;;;;8.90;6.20;;;;;;;12.58;93.05;100159.50;21034300;28;20259;-59
2021/05/19 19:28:05;;;;;;;18.63;12.77;;;;;;;12.50;93.78;100161.91;21053700;28;20214;-59
2021/05/19 19:38:06;;;;;;;17.23;11.73;;;;;;;12.44;96.53;100152.50;21035723;28;20214;-59
2021/05/19 19:58:11;;;;;;;3.80;3.50;;;;;;;11.95;100.00;100160.66;21042990;28;20222;-73
2021/05/19 20:08:12;;;;;;;3.33;3.03;;;;;;;11.77;100.00;100157.47;20981496;27;20860;-59
2021/05/19 20:18:12;;;;;;;3.50;3.20;;;;;;;11.46;100.00;100156.09;21001396;27;20218;-60
2021/05/19 20:28:13;;;;;;;4.68;4.13;;;;;;;11.11;100.00;100153.19;21028645;27;20225;-63
2021/05/19 20:38:14;;;;;;;11.80;7.40;;;;;;;10.83;100.00;100164.06;21048385;28;20225;-58
2021/05/19 20:48:15;;;;;;;8.30;5.73;;;;;;;10.55;100.00;100172.19;21027146;28;20230;-60
2021/05/19 20:58:16;;;;;;;6.63;5.67;;;;;;;10.33;100.00;100170.97;21048885;28;20226;-60
2021/05/19 21:08:17;;;;;;;6.30;5.70;;;;;;;10.19;100.00;100172.81;21030034;28;20233;-60
2021/05/19 21:18:18;;;;;;;8.40;7.00;;;;;;;10.09;100.00;100175.19;21046665;28;20865;-60
2021/05/19 21:28:18;;;;;;;5.97;5.40;;;;;;;10.04;100.00;100179.94;21056374;27;20493;-57
2021/05/19 21:38:19;;;;;;;5.70;5.10;;;;;;;9.93;100.00;100177.13;21014294;27;20261;-58
2021/05/19 21:48:19;;;;;;;5.10;4.60;;;;;;;9.74;100.00;100170.31;20964157;28;20230;-58
2021/05/19 21:58:20;;;;;;;5.00;4.50;;;;;;;9.64;100.00;100173.66;20962185;28;20217;-59
2021/05/19 22:08:22;;;;;;;4.73;4.33;;;;;;;9.56;100.00;100176.78;20976440;28;20878;-59
2021/05/19 22:18:34;;;;;;;4.50;4.13;;;;;;;9.50;100.00;100179.84;20989090;28;20243;-64
2021/05/19 22:28:35;;;;;;;5.07;4.67;;;;;;;9.41;100.00;100191.06;20976543;28;20804;-59
2021/05/19 22:38:37;;;;;;;5.17;4.77;;;;;;;9.36;100.00;100190.47;20956103;27;20285;-60
2021/05/19 22:48:38;;;;;;;4.40;4.10;;;;;;;9.34;100.00;100185.25;20973823;28;20226;-61
2021/05/19 22:58:39;;;;;;;4.50;4.10;;;;;;;9.40;100.00;100184.03;20981030;28;20228;-58
2021/05/19 23:08:39;;;;;;;4.63;4.23;;;;;;;9.53;100.00;100184.97;20987506;28;20374;-57
2021/05/19 23:18:40;;;;;;;4.57;4.23;;;;;;;9.57;100.00;100186.47;20965713;28;20232;-64
2021/05/19 23:28:40;;;;;;;5.30;4.80;;;;;;;9.57;100.00;100180.28;20957922;28;20236;-57
2021/05/19 23:38:41;;;;;;;6.07;5.47;;;;;;;9.55;100.00;100193.69;20993785;28;20220;-58
2021/05/19 23:48:41;;;;;;;6.63;6.03;;;;;;;9.57;100.00;100190.94;20948786;28;20260;-56
2021/05/19 23:58:42;;;;;;;6.73;5.70;;;;;;;9.46;100.00;100193.41;20968259;28;20462;-56
